createdAt,value
2024-01-30T00:02:10.001Z,102720.38
2024-01-30T00:05:12.759Z,102718.56
2024-01-30T00:08:15.398Z,102716.88
2024-01-30T00:11:18.010Z,102716.75
2024-01-30T00:14:20.655Z,102721.09
2024-01-30T00:17:23.341Z,102722.72
2024-01-30T00:20:26.006Z,102724.59
2024-01-30T00:23:28.531Z,102710.63
2024-01-30T00:26:31.143Z,102720.03
2024-01-30T00:29:35.108Z,102724.34
2024-01-30T00:32:38.019Z,102725.28
2024-01-30T00:35:40.639Z,102724.97
2024-01-30T00:38:43.355Z,102726.94
2024-01-30T00:41:45.986Z,102719.47
2024-01-30T00:44:48.562Z,102720.53
2024-01-30T00:47:51.156Z,102723.13
2024-01-30T00:50:53.830Z,102725.94
2024-01-30T00:53:56.730Z,102720.88
2024-01-30T00:56:59.288Z,102720.88
2024-01-30T01:00:01.920Z,102721.06
2024-01-30T01:03:04.670Z,102718.44
2024-01-30T01:06:07.324Z,102724.56
2024-01-30T01:09:09.813Z,102721.22
2024-01-30T01:12:12.348Z,102715.19
2024-01-30T01:15:14.900Z,102713.75
2024-01-30T01:18:17.587Z,102712.63
2024-01-30T01:21:20.067Z,102709.38
2024-01-30T01:24:22.646Z,102719.22
2024-01-30T01:27:25.164Z,102714.22
2024-01-30T01:30:27.860Z,102720.03
2024-01-30T01:33:30.447Z,102717.28
2024-01-30T01:36:33.039Z,102712.28
2024-01-30T01:39:35.598Z,102707.06
2024-01-30T01:42:38.460Z,102704.50
2024-01-30T01:45:41.126Z,102705.47
2024-01-30T01:48:44.588Z,102701.03
2024-01-30T01:51:49.420Z,102704.72
2024-01-30T01:54:52.144Z,102698.47
2024-01-30T01:57:55.309Z,102696.59
2024-01-30T02:01:00.108Z,102699.16
2024-01-30T02:04:02.684Z,102698.19
2024-01-30T02:07:05.493Z,102701.16
2024-01-30T02:10:10.585Z,102696.84
2024-01-30T02:13:13.323Z,102690.63
2024-01-30T02:16:16.012Z,102693.88
2024-01-30T02:19:18.651Z,102686.31
2024-01-30T02:22:22.737Z,102692.53
2024-01-30T02:25:35.207Z,102690.91
2024-01-30T02:28:37.870Z,102697.13
2024-01-30T02:31:40.389Z,102693.75
2024-01-30T02:34:43.341Z,102699.44
2024-01-30T02:37:46.018Z,102699.44
2024-01-30T02:40:48.513Z,102703.75
2024-01-30T02:43:51.158Z,102703.88
2024-01-30T02:46:55.414Z,102705.53
2024-01-30T02:49:58.087Z,102693.81
2024-01-30T02:53:00.796Z,102689.63
2024-01-30T02:56:04.183Z,102692.66
2024-01-30T02:59:06.773Z,102694.69
2024-01-30T03:02:09.432Z,102689.72
2024-01-30T03:05:12.097Z,102693.34
2024-01-30T03:08:14.805Z,102697.72
2024-01-30T03:11:17.430Z,102698.84
2024-01-30T03:14:20.011Z,102702.28
2024-01-30T03:17:22.836Z,102699.94
2024-01-30T03:20:25.469Z,102705.72
2024-01-30T03:23:28.019Z,102705.47
2024-01-30T03:26:30.590Z,102701.34
2024-01-30T03:29:33.085Z,102697.44
2024-01-30T03:32:35.743Z,102703.31
2024-01-30T03:35:38.292Z,102693.72
2024-01-30T03:38:40.766Z,102689.31
2024-01-30T03:41:44.631Z,102680.19
2024-01-30T03:44:47.329Z,102683.56
2024-01-30T03:47:50.529Z,102683.63
2024-01-30T03:50:53.076Z,102681.84
2024-01-30T03:53:55.681Z,102671.44
2024-01-30T03:56:58.153Z,102677.19
2024-01-30T04:00:03.281Z,102678.16
2024-01-30T04:03:16.830Z,102681.25
2024-01-30T04:06:19.565Z,102679.38
2024-01-30T04:09:22.060Z,102684.94
2024-01-30T04:12:24.508Z,102675.34
2024-01-30T04:15:27.404Z,102671.72
2024-01-30T04:18:30.542Z,102669.28
2024-01-30T04:21:33.046Z,102679.78
2024-01-30T04:24:35.710Z,102676.34
2024-01-30T04:27:38.456Z,102678.94
2024-01-30T04:30:41.150Z,102683.06
2024-01-30T04:33:43.853Z,102678.94
2024-01-30T04:36:47.257Z,102681.63
2024-01-30T04:39:49.862Z,102681.84
2024-01-30T04:42:52.526Z,102685.41
2024-01-30T04:45:55.169Z,102680.19
2024-01-30T04:48:57.844Z,102693.19
2024-01-30T04:52:00.455Z,102692.13
2024-01-30T04:55:03.171Z,102692.22
2024-01-30T04:58:05.851Z,102692.34
2024-01-30T05:01:08.574Z,102702.03
2024-01-30T05:04:15.804Z,102700.09
2024-01-30T05:07:19.793Z,102698.16
2024-01-30T05:10:22.423Z,102707.91
2024-01-30T05:13:25.048Z,102707.09
2024-01-30T05:16:27.735Z,102702.78
2024-01-30T05:19:30.454Z,102702.88
2024-01-30T05:22:33.046Z,102714.34
2024-01-30T05:25:35.674Z,102717.03
2024-01-30T05:28:38.896Z,102724.44
2024-01-30T05:31:41.485Z,102714.91
2024-01-30T05:34:44.076Z,102729.91
2024-01-30T05:37:46.662Z,102725.66
2024-01-30T05:40:49.193Z,102724.22
2024-01-30T05:43:51.732Z,102725.72
2024-01-30T05:46:54.622Z,102727.88
2024-01-30T05:49:57.375Z,102729.69
2024-01-30T05:52:59.978Z,102727.94
2024-01-30T05:56:03.553Z,102730.66
2024-01-30T05:59:06.084Z,102733.16
2024-01-30T06:02:08.732Z,102735.00
2024-01-30T06:05:11.562Z,102730.81
2024-01-30T06:08:14.055Z,102731.59
2024-01-30T06:11:16.649Z,102729.69
2024-01-30T06:14:19.210Z,102736.09
2024-01-30T06:17:21.742Z,102738.34
2024-01-30T06:20:24.406Z,102722.63
2024-01-30T06:23:26.979Z,102725.28
2024-01-30T06:26:29.592Z,102731.34
2024-01-30T06:29:32.169Z,102729.63
2024-01-30T06:32:35.713Z,102728.56
2024-01-30T06:35:44.591Z,102729.84
2024-01-30T06:38:47.606Z,102734.09
2024-01-30T06:41:50.558Z,102740.56
2024-01-30T06:44:53.231Z,102736.56
2024-01-30T06:47:55.765Z,102748.44
2024-01-30T06:50:59.156Z,102740.31
2024-01-30T06:54:01.755Z,102737.16
2024-01-30T06:57:04.590Z,102737.84
2024-01-30T07:00:07.713Z,102734.94
2024-01-30T07:03:10.314Z,102737.34
2024-01-30T07:06:13.218Z,102740.47
2024-01-30T07:09:15.885Z,102740.03
2024-01-30T07:12:21.172Z,102744.28
2024-01-30T07:15:23.807Z,102737.13
2024-01-30T07:18:26.455Z,102739.53
2024-01-30T07:21:29.692Z,102745.25
2024-01-30T07:24:32.466Z,102746.03
2024-01-30T07:27:35.033Z,102752.94
2024-01-30T07:30:37.793Z,102742.84
2024-01-30T07:33:40.509Z,102737.88
2024-01-30T07:36:43.204Z,102744.34
2024-01-30T07:39:46.069Z,102743.72
2024-01-30T07:42:50.645Z,102739.84
2024-01-30T07:45:53.344Z,102741.22
2024-01-30T07:48:57.058Z,102741.75
2024-01-30T07:51:59.834Z,102735.16
2024-01-30T07:55:05.185Z,102744.50
2024-01-30T07:58:08.062Z,102738.13
2024-01-30T08:01:10.933Z,102725.56
2024-01-30T08:04:13.930Z,102735.47
2024-01-30T08:07:16.966Z,102732.38
2024-01-30T08:10:20.187Z,102738.97
2024-01-30T08:13:23.536Z,102736.00
2024-01-30T08:16:26.367Z,102740.72
2024-01-30T08:19:29.180Z,102735.78
2024-01-30T08:22:32.191Z,102742.44
2024-01-30T08:25:34.875Z,102745.25
2024-01-30T08:28:37.544Z,102738.31
2024-01-30T08:31:40.375Z,102744.97
2024-01-30T08:34:43.457Z,102745.94
2024-01-30T08:37:46.337Z,102741.44
2024-01-30T08:40:48.957Z,102747.31
2024-01-30T08:43:51.616Z,102747.41
2024-01-30T08:46:55.225Z,102749.63
2024-01-30T08:49:59.043Z,102743.91
2024-01-30T08:53:02.150Z,102743.47
2024-01-30T08:56:05.361Z,102743.97
2024-01-30T08:59:09.410Z,102738.56
2024-01-30T09:02:17.505Z,102742.41
2024-01-30T09:05:20.280Z,102736.66
2024-01-30T09:08:22.974Z,102736.00
2024-01-30T09:11:25.745Z,102731.03
2024-01-30T09:14:29.904Z,102725.19
2024-01-30T09:17:36.601Z,102733.69
2024-01-30T09:20:39.318Z,102725.53
2024-01-30T09:23:41.842Z,102727.22
2024-01-30T09:26:44.476Z,102734.94
2024-01-30T09:29:47.104Z,102731.97
2024-01-30T09:32:49.847Z,102734.50
2024-01-30T09:35:52.573Z,102727.16
2024-01-30T09:38:55.781Z,102733.00
2024-01-30T09:42:13.098Z,102734.66
2024-01-30T09:45:15.941Z,102731.19
2024-01-30T09:48:18.668Z,102730.94
2024-01-30T09:51:23.389Z,102725.50
2024-01-30T09:54:26.047Z,102728.53
2024-01-30T09:57:31.593Z,102729.19
2024-01-30T10:00:34.217Z,102727.03
2024-01-30T10:03:39.862Z,102726.34
2024-01-30T10:06:43.584Z,102734.28
2024-01-30T10:09:46.978Z,102735.34
2024-01-30T10:12:50.052Z,102722.75
2024-01-30T10:15:56.504Z,102713.22
2024-01-30T10:18:59.292Z,102712.75
2024-01-30T10:22:02.012Z,102709.72
2024-01-30T10:25:07.811Z,102706.06
2024-01-30T10:28:10.730Z,102704.31
2024-01-30T10:31:19.977Z,102704.28
2024-01-30T10:37:27.463Z,102701.56
2024-01-30T10:40:33.333Z,102684.75
2024-01-30T10:43:43.653Z,102682.75
2024-01-30T10:46:53.074Z,102675.66
2024-01-30T10:49:57.389Z,102661.09
2024-01-30T10:53:01.428Z,102661.53
2024-01-30T10:56:05.709Z,102654.53
2024-01-30T10:59:11.977Z,102658.34
2024-01-30T11:02:16.037Z,102650.72
2024-01-30T11:05:32.875Z,102648.19
2024-01-30T11:08:36.747Z,102646.56
2024-01-30T11:12:02.472Z,102649.00
2024-01-30T11:15:16.040Z,102642.63
2024-01-30T11:18:26.673Z,102640.09
2024-01-30T11:21:29.579Z,102644.66
2024-01-30T11:24:43.409Z,102630.38
2024-01-30T11:27:47.161Z,102629.56
2024-01-30T11:30:52.017Z,102625.31
2024-01-30T11:33:55.569Z,102630.84
2024-01-30T11:37:00.546Z,102622.13
2024-01-30T11:40:05.300Z,102629.75
2024-01-30T11:43:10.263Z,102624.28
2024-01-30T11:46:13.473Z,102617.59
2024-01-30T11:49:18.656Z,102617.38
2024-01-30T11:52:21.398Z,102602.31
2024-01-30T11:55:25.445Z,102607.69
2024-01-30T11:58:28.399Z,102596.03
2024-01-30T12:01:33.574Z,102598.41
2024-01-30T12:04:36.605Z,102581.28
2024-01-30T12:07:39.465Z,102579.97
2024-01-30T12:10:43.001Z,102581.84
2024-01-30T12:13:46.205Z,102569.84
2024-01-30T12:16:52.195Z,102576.94
2024-01-30T12:20:08.132Z,102565.22
2024-01-30T12:23:13.333Z,102565.09
2024-01-30T12:26:16.362Z,102559.72
2024-01-30T12:29:18.977Z,102565.91
2024-01-30T12:32:24.029Z,102562.16
2024-01-30T12:35:28.502Z,102554.91
2024-01-30T12:38:31.956Z,102552.50
2024-01-30T12:41:34.592Z,102556.59
2024-01-30T12:44:37.200Z,102550.53
2024-01-30T12:47:40.093Z,102553.19
2024-01-30T12:50:43.380Z,102554.50
2024-01-30T12:53:47.867Z,102550.88
2024-01-30T12:56:50.648Z,102538.34
2024-01-30T12:59:53.215Z,102543.41
2024-01-30T13:02:56.011Z,102543.38
2024-01-30T13:05:58.808Z,102535.34
2024-01-30T13:09:01.645Z,102524.22
2024-01-30T13:12:04.846Z,102519.13
2024-01-30T13:15:07.719Z,102521.44
2024-01-30T13:18:10.435Z,102519.59
2024-01-30T13:21:13.007Z,102520.47
2024-01-30T13:24:15.837Z,102524.25
2024-01-30T13:27:18.971Z,102515.28
2024-01-30T13:30:31.447Z,102521.69
2024-01-30T13:33:34.587Z,102518.72
2024-01-30T13:36:37.459Z,102520.97
2024-01-30T13:39:42.596Z,102520.97
2024-01-30T13:42:45.506Z,102520.78
2024-01-30T13:45:50.591Z,102519.94
2024-01-30T13:48:53.933Z,102514.91
2024-01-30T13:52:00.289Z,102512.06
2024-01-30T13:55:03.488Z,102515.91
2024-01-30T13:58:06.314Z,102520.91
2024-01-30T14:01:09.037Z,102513.66
2024-01-30T14:04:13.880Z,102515.34
2024-01-30T14:07:19.644Z,102509.69
2024-01-30T14:10:22.366Z,102510.81
2024-01-30T14:13:26.442Z,102512.25
2024-01-30T14:16:30.141Z,102510.00
2024-01-30T14:19:35.964Z,102505.75
2024-01-30T14:22:38.603Z,102502.56
2024-01-30T14:25:41.427Z,102507.25
2024-01-30T14:28:47.424Z,102510.41
2024-01-30T14:31:49.932Z,102504.94
2024-01-30T14:34:53.819Z,102498.59
2024-01-30T14:37:56.441Z,102503.25
2024-01-30T14:40:59.262Z,102498.44
2024-01-30T14:44:02.655Z,102496.78
2024-01-30T14:47:05.828Z,102492.28
2024-01-30T14:50:09.410Z,102496.25
2024-01-30T14:53:12.561Z,102492.88
2024-01-30T14:56:15.318Z,102479.84
2024-01-30T14:59:18.152Z,102492.66
2024-01-30T15:02:21.060Z,102500.00
2024-01-30T15:05:23.879Z,102487.28
2024-01-30T15:08:26.720Z,102501.50
2024-01-30T15:11:29.282Z,102487.28
2024-01-30T15:14:31.860Z,102489.47
2024-01-30T15:17:34.658Z,102495.78
2024-01-30T15:20:37.252Z,102495.91
2024-01-30T15:23:39.968Z,102491.53
2024-01-30T15:26:42.820Z,102498.75
2024-01-30T15:29:45.424Z,102500.34
2024-01-30T15:32:49.042Z,102492.19
2024-01-30T15:35:51.676Z,102496.63
2024-01-30T15:38:54.271Z,102500.84
2024-01-30T15:41:56.851Z,102501.84
2024-01-30T15:45:00.010Z,102500.84
2024-01-30T15:48:02.560Z,102499.81
2024-01-30T15:51:05.658Z,102504.28
2024-01-30T15:54:08.348Z,102498.13
2024-01-30T15:57:11.361Z,102502.84
2024-01-30T16:00:15.061Z,102498.44
2024-01-30T16:03:18.368Z,102510.19
2024-01-30T16:06:21.384Z,102511.22
2024-01-30T16:09:25.122Z,102508.44
2024-01-30T16:12:28.657Z,102509.69
2024-01-30T16:15:31.222Z,102509.19
2024-01-30T16:18:34.506Z,102516.06
2024-01-30T16:21:39.739Z,102515.50
2024-01-30T16:24:42.569Z,102516.22
2024-01-30T16:27:45.195Z,102515.09
2024-01-30T16:30:47.858Z,102520.03
2024-01-30T16:33:50.842Z,102514.44
2024-01-30T16:36:53.626Z,102520.25
2024-01-30T16:39:56.351Z,102517.81
2024-01-30T16:42:58.984Z,102514.25
2024-01-30T16:46:01.736Z,102513.84
2024-01-30T16:49:04.639Z,102518.88
2024-01-30T16:52:08.702Z,102524.50
2024-01-30T16:55:11.336Z,102527.28
2024-01-30T16:58:13.939Z,102524.94
2024-01-30T17:01:16.717Z,102525.16
2024-01-30T17:04:23.517Z,102524.94
2024-01-30T17:07:26.721Z,102521.53
2024-01-30T17:10:29.755Z,102516.34
2024-01-30T17:13:32.439Z,102509.97
2024-01-30T17:16:35.622Z,102509.41
2024-01-30T17:19:38.867Z,102510.94
2024-01-30T17:22:45.183Z,102513.28
2024-01-30T17:25:51.034Z,102517.47
2024-01-30T17:28:53.922Z,102506.25
2024-01-30T17:31:56.779Z,102506.34
2024-01-30T17:34:59.418Z,102503.53
2024-01-30T17:38:05.408Z,102495.47
2024-01-30T17:41:12.596Z,102486.91
2024-01-30T17:44:16.826Z,102491.91
2024-01-30T17:47:19.655Z,102499.44
2024-01-30T17:50:22.485Z,102493.06
2024-01-30T17:53:25.247Z,102492.13
2024-01-30T17:56:28.421Z,102492.97
2024-01-30T17:59:31.090Z,102493.16
2024-01-30T18:02:34.117Z,102494.66
2024-01-30T18:05:37.156Z,102494.00
2024-01-30T18:08:40.340Z,102495.31
2024-01-30T18:11:42.890Z,102495.72
2024-01-30T18:14:45.900Z,102490.66
2024-01-30T18:17:48.702Z,102496.75
2024-01-30T18:20:51.474Z,102491.13
2024-01-30T18:23:54.044Z,102488.28
2024-01-30T18:26:57.155Z,102490.63
2024-01-30T18:30:00.320Z,102485.22
2024-01-30T18:33:04.119Z,102495.00
2024-01-30T18:36:08.673Z,102501.19
2024-01-30T18:39:11.758Z,102491.91
2024-01-30T18:42:14.581Z,102491.41
2024-01-30T18:45:17.348Z,102496.03
2024-01-30T18:48:20.177Z,102494.19
2024-01-30T18:51:23.093Z,102497.41
2024-01-30T18:54:26.519Z,102499.19
2024-01-30T18:57:29.611Z,102497.41
2024-01-30T19:00:34.568Z,102504.91
2024-01-30T19:03:37.320Z,102495.47
2024-01-30T19:06:40.409Z,102501.03
2024-01-30T19:09:43.386Z,102498.66
2024-01-30T19:12:46.638Z,102504.59
2024-01-30T19:15:49.523Z,102504.13
2024-01-30T19:18:52.993Z,102499.94
2024-01-30T19:21:55.729Z,102496.25
2024-01-30T19:24:58.390Z,102501.72
2024-01-30T19:28:01.378Z,102504.81
2024-01-30T19:31:04.568Z,102492.44
2024-01-30T19:34:07.526Z,102493.38
2024-01-30T19:37:10.380Z,102492.66
2024-01-30T19:40:13.430Z,102493.06
2024-01-30T19:43:16.409Z,102497.22
2024-01-30T19:46:19.308Z,102493.19
2024-01-30T19:49:22.013Z,102488.81
2024-01-30T19:52:25.007Z,102499.94
2024-01-30T19:55:27.888Z,102495.00
2024-01-30T19:58:30.709Z,102494.16
2024-01-30T20:01:35.491Z,102487.78
2024-01-30T20:04:38.507Z,102495.84
2024-01-30T20:07:41.370Z,102487.22
2024-01-30T20:10:44.855Z,102501.25
2024-01-30T20:13:48.149Z,102494.66
2024-01-30T20:16:51.263Z,102492.19
2024-01-30T20:19:54.524Z,102497.56
2024-01-30T20:22:57.539Z,102502.59
2024-01-30T20:26:01.382Z,102501.75
2024-01-30T20:29:04.322Z,102514.59
2024-01-30T20:32:07.368Z,102501.63
2024-01-30T20:35:10.028Z,102502.66
2024-01-30T20:38:12.684Z,102500.03
2024-01-30T20:41:16.190Z,102506.56
2024-01-30T20:44:20.893Z,102497.16
2024-01-30T20:47:23.933Z,102496.59
2024-01-30T20:50:26.591Z,102498.94
2024-01-30T20:53:29.680Z,102488.53
2024-01-30T20:56:32.493Z,102489.56
2024-01-30T20:59:35.080Z,102491.94
2024-01-30T21:02:38.532Z,102486.13
2024-01-30T21:05:43.243Z,102487.44
2024-01-30T21:08:46.168Z,102483.06
2024-01-30T21:11:49.081Z,102482.78
2024-01-30T21:14:52.475Z,102479.44
2024-01-30T21:17:55.383Z,102483.06
2024-01-30T21:20:59.274Z,102486.53
2024-01-30T21:24:02.121Z,102481.63
2024-01-30T21:27:04.777Z,102473.00
2024-01-30T21:30:08.274Z,102468.59
2024-01-30T21:33:10.897Z,102457.44
2024-01-30T21:36:13.437Z,102465.06
2024-01-30T21:39:15.937Z,102472.56
2024-01-30T21:42:19.549Z,102472.50
2024-01-30T21:45:24.198Z,102471.50
2024-01-30T21:48:26.676Z,102464.91
2024-01-30T21:51:29.623Z,102461.31
2024-01-30T21:54:32.665Z,102461.56
2024-01-30T21:57:35.319Z,102457.69
2024-01-30T22:00:37.854Z,102452.59
2024-01-30T22:03:42.304Z,102453.91
2024-01-30T22:06:45.421Z,102447.53
2024-01-30T22:09:47.997Z,102449.72
2024-01-30T22:12:50.641Z,102448.94
2024-01-30T22:15:53.278Z,102453.38
2024-01-30T22:18:56.097Z,102442.84
2024-01-30T22:21:58.752Z,102446.84
2024-01-30T22:25:01.529Z,102437.53
2024-01-30T22:28:04.624Z,102435.84
2024-01-30T22:31:07.282Z,102441.09
2024-01-30T22:34:09.876Z,102439.50
2024-01-30T22:37:12.521Z,102434.28
2024-01-30T22:40:15.275Z,102436.41
2024-01-30T22:43:17.861Z,102429.66
2024-01-30T22:46:21.177Z,102434.03
2024-01-30T22:49:24.006Z,102431.50
2024-01-30T22:52:26.873Z,102444.31
2024-01-30T22:55:29.605Z,102444.25
2024-01-30T22:58:32.402Z,102441.81
2024-01-30T23:01:35.161Z,102432.78
2024-01-30T23:04:37.980Z,102426.13
2024-01-30T23:07:41.845Z,102429.13
2024-01-30T23:10:44.536Z,102428.69
2024-01-30T23:13:47.095Z,102426.22
2024-01-30T23:16:49.629Z,102428.56
2024-01-30T23:19:52.177Z,102444.50
2024-01-30T23:22:54.723Z,102438.75
2024-01-30T23:25:57.283Z,102436.97
2024-01-30T23:28:59.885Z,102437.03
2024-01-30T23:32:02.368Z,102431.94
2024-01-30T23:35:05.967Z,102428.81
2024-01-30T23:38:08.720Z,102425.59
2024-01-30T23:41:11.229Z,102422.06
2024-01-30T23:44:13.886Z,102418.56
2024-01-30T23:47:16.380Z,102428.81
2024-01-30T23:50:18.972Z,102411.66
2024-01-30T23:53:21.524Z,102416.38
2024-01-30T23:56:24.159Z,102415.84
2024-01-30T23:59:26.706Z,102416.50
